createdAt,value
2022-10-01T00:02:14.605Z,14.73
2022-10-01T00:04:43.765Z,14.74
2022-10-01T00:07:15.419Z,14.70
2022-10-01T00:09:44.867Z,14.66
2022-10-01T00:12:16.754Z,14.67
2022-10-01T00:14:45.933Z,14.60
2022-10-01T00:17:15.093Z,14.63
2022-10-01T00:19:44.255Z,14.60
2022-10-01T00:22:14.792Z,14.66
2022-10-01T00:24:44.242Z,14.63
2022-10-01T00:27:13.733Z,14.61
2022-10-01T00:29:45.434Z,14.66
2022-10-01T00:32:15.543Z,14.72
2022-10-01T00:34:45.120Z,14.73
2022-10-01T00:37:15.656Z,14.66
2022-10-01T00:39:45.346Z,14.60
2022-10-01T00:42:20.431Z,14.57
2022-10-01T00:44:51.058Z,14.66
2022-10-01T00:47:28.362Z,14.67
2022-10-01T00:50:05.956Z,14.63
2022-10-01T00:52:40.337Z,14.54
2022-10-01T00:55:13.354Z,14.54
2022-10-01T00:57:45.285Z,14.54
2022-10-01T01:00:16.078Z,14.50
2022-10-01T01:02:45.321Z,14.49
2022-10-01T01:05:15.123Z,14.55
2022-10-01T01:07:49.638Z,14.42
2022-10-01T01:10:28.741Z,14.42
2022-10-01T01:13:12.586Z,14.42
2022-10-01T01:15:48.445Z,14.46
2022-10-01T01:18:24.283Z,14.46
2022-10-01T01:21:21.820Z,14.26
2022-10-01T01:24:38.594Z,14.37
2022-10-01T01:27:38.647Z,14.26
2022-10-01T01:30:12.840Z,14.40
2022-10-01T01:32:51.545Z,14.30
2022-10-01T01:35:30.028Z,14.34
2022-10-01T01:38:03.318Z,14.30
2022-10-01T01:40:36.894Z,14.21
2022-10-01T01:43:11.701Z,14.30
2022-10-01T01:45:44.349Z,14.33
2022-10-01T01:48:14.208Z,14.15
2022-10-01T01:50:58.294Z,14.16
2022-10-01T01:53:27.514Z,14.23
2022-10-01T01:55:57.040Z,14.34
2022-10-01T01:58:26.526Z,14.29
2022-10-01T02:00:57.581Z,14.26
2022-10-01T02:03:29.519Z,14.12
2022-10-01T02:06:12.281Z,14.24
2022-10-01T02:08:49.913Z,14.12
2022-10-01T02:11:27.207Z,14.23
2022-10-01T02:14:12.610Z,14.25
2022-10-01T02:16:50.162Z,14.14
2022-10-01T02:19:29.630Z,14.17
2022-10-01T02:22:03.659Z,14.04
2022-10-01T02:24:41.509Z,14.29
2022-10-01T02:27:16.745Z,14.24
2022-10-01T02:29:47.525Z,14.16
2022-10-01T02:32:19.729Z,14.26
2022-10-01T02:34:51.872Z,14.21
2022-10-01T02:37:25.732Z,14.21
2022-10-01T02:39:58.223Z,14.24
2022-10-01T02:42:30.976Z,14.23
2022-10-01T02:45:02.773Z,14.33
2022-10-01T02:47:38.426Z,14.29
2022-10-01T02:50:09.935Z,14.20
2022-10-01T02:52:47.287Z,14.26
2022-10-01T02:55:20.685Z,14.27
2022-10-01T02:57:49.011Z,14.34
2022-10-01T03:00:21.779Z,14.34
2022-10-01T03:02:52.639Z,14.35
2022-10-01T03:05:23.112Z,14.39
2022-10-01T03:07:52.712Z,14.50
2022-10-01T03:10:21.959Z,14.60
2022-10-01T03:12:51.121Z,14.50
2022-10-01T03:15:21.111Z,14.70
2022-10-01T03:17:54.436Z,14.61
2022-10-01T03:20:24.345Z,14.59
2022-10-01T03:22:53.636Z,14.61
2022-10-01T03:25:22.749Z,14.54
2022-10-01T03:27:53.825Z,14.62
2022-10-01T03:30:23.365Z,14.62
2022-10-01T03:32:53.937Z,14.50
2022-10-01T03:35:23.670Z,14.61
2022-10-01T03:37:53.124Z,14.58
2022-10-01T03:40:22.269Z,14.63
2022-10-01T03:42:51.421Z,14.59
2022-10-01T03:45:20.608Z,14.37
2022-10-01T03:47:54.775Z,14.59
2022-10-01T03:50:24.081Z,14.38
2022-10-01T03:52:53.282Z,14.42
2022-10-01T03:55:22.402Z,14.39
2022-10-01T03:57:51.493Z,14.37
2022-10-01T04:00:20.671Z,14.32
2022-10-01T04:02:49.856Z,14.31
2022-10-01T04:05:20.404Z,14.34
2022-10-01T04:07:50.057Z,14.39
2022-10-01T04:10:19.266Z,14.35
2022-10-01T04:12:48.391Z,14.31
2022-10-01T04:15:17.855Z,14.29
2022-10-01T04:17:46.956Z,14.30
2022-10-01T04:20:16.625Z,14.28
2022-10-01T04:22:47.419Z,14.24
2022-10-01T04:25:16.701Z,14.08
2022-10-01T04:27:59.795Z,14.16
2022-10-01T04:30:31.989Z,14.14
2022-10-01T04:33:01.618Z,14.14
2022-10-01T04:35:31.742Z,14.19
2022-10-01T04:38:04.886Z,14.15
2022-10-01T04:40:36.701Z,14.14
2022-10-01T04:43:09.711Z,14.18
2022-10-01T04:45:39.241Z,14.19
2022-10-01T04:48:08.392Z,14.20
2022-10-01T04:50:38.283Z,14.19
2022-10-01T04:53:08.824Z,14.13
2022-10-01T04:55:38.388Z,14.16
2022-10-01T04:58:07.529Z,14.27
2022-10-01T05:00:36.835Z,14.25
2022-10-01T05:03:06.094Z,14.20
2022-10-01T05:05:35.307Z,14.21
2022-10-01T05:08:04.448Z,14.11
2022-10-01T05:10:35.629Z,14.26
2022-10-01T05:13:04.982Z,14.30
2022-10-01T05:15:35.809Z,14.22
2022-10-01T05:18:05.202Z,14.18
2022-10-01T05:20:34.679Z,14.32
2022-10-01T05:23:03.767Z,14.30
2022-10-01T05:25:34.289Z,14.27
2022-10-01T05:28:05.933Z,14.16
2022-10-01T05:30:35.892Z,14.25
2022-10-01T05:33:06.612Z,14.17
2022-10-01T05:35:35.784Z,14.32
2022-10-01T05:38:05.038Z,14.31
2022-10-01T05:40:35.642Z,14.28
2022-10-01T05:43:05.552Z,14.30
2022-10-01T05:45:35.927Z,14.34
2022-10-01T05:48:08.003Z,14.21
2022-10-01T05:50:41.141Z,14.31
2022-10-01T05:53:14.082Z,14.38
2022-10-01T05:55:45.120Z,14.35
2022-10-01T05:58:15.684Z,14.34
2022-10-01T06:00:45.355Z,14.32
2022-10-01T06:03:15.323Z,14.30
2022-10-01T06:05:46.271Z,14.31
2022-10-01T06:08:15.863Z,14.42
2022-10-01T06:10:47.277Z,14.36
2022-10-01T06:13:18.005Z,14.38
2022-10-01T06:15:47.864Z,14.28
2022-10-01T06:18:16.953Z,14.44
2022-10-01T06:20:46.116Z,14.57
2022-10-01T06:23:16.130Z,14.48
2022-10-01T06:25:47.501Z,14.52
2022-10-01T06:28:16.701Z,14.55
2022-10-01T06:30:46.769Z,14.56
2022-10-01T06:33:18.099Z,14.63
2022-10-01T06:35:49.448Z,14.65
2022-10-01T06:38:21.060Z,14.55
2022-10-01T06:40:55.793Z,14.54
2022-10-01T06:43:26.209Z,14.55
2022-10-01T06:45:55.762Z,14.65
2022-10-01T06:48:25.186Z,14.48
2022-10-01T06:50:56.768Z,14.39
2022-10-01T06:53:26.567Z,14.36
2022-10-01T06:55:57.467Z,14.35
2022-10-01T06:58:27.438Z,14.42
2022-10-01T07:01:01.622Z,14.43
2022-10-01T07:03:32.211Z,14.51
2022-10-01T07:06:08.046Z,14.24
2022-10-01T07:08:37.191Z,14.45
2022-10-01T07:11:07.865Z,14.49
2022-10-01T07:13:37.165Z,14.65
2022-10-01T07:16:07.023Z,14.64
2022-10-01T07:18:36.505Z,14.90
2022-10-01T07:21:05.833Z,15.07
2022-10-01T07:23:35.045Z,15.29
2022-10-01T07:26:08.914Z,15.40
2022-10-01T07:28:38.043Z,15.57
2022-10-01T07:31:11.511Z,15.60
2022-10-01T07:33:41.859Z,15.80
2022-10-01T07:36:13.687Z,15.89
2022-10-01T07:38:45.152Z,15.91
2022-10-01T07:41:17.506Z,15.65
2022-10-01T07:43:49.949Z,15.81
2022-10-01T07:46:19.221Z,15.74
2022-10-01T07:48:50.302Z,15.63
2022-10-01T07:51:19.457Z,15.74
2022-10-01T07:53:48.686Z,15.77
2022-10-01T07:56:19.383Z,16.06
2022-10-01T07:58:48.599Z,16.15
2022-10-01T08:01:18.075Z,16.39
2022-10-01T08:03:50.036Z,16.47
2022-10-01T08:06:25.206Z,16.55
2022-10-01T08:08:54.842Z,17.02
2022-10-01T08:11:25.358Z,17.19
2022-10-01T08:13:56.060Z,17.30
2022-10-01T08:16:29.178Z,17.44
2022-10-01T08:18:58.414Z,17.37
2022-10-01T08:21:29.528Z,17.24
2022-10-01T08:23:58.691Z,17.50
2022-10-01T08:26:29.525Z,17.51
2022-10-01T08:29:00.222Z,17.62
2022-10-01T08:31:29.462Z,17.62
2022-10-01T08:33:58.891Z,17.64
2022-10-01T08:36:28.080Z,17.87
2022-10-01T08:38:57.586Z,17.91
2022-10-01T08:41:44.870Z,17.86
2022-10-01T08:44:22.862Z,17.63
2022-10-01T08:46:53.394Z,17.40
2022-10-01T08:49:27.758Z,17.27
2022-10-01T08:52:04.444Z,17.19
2022-10-01T08:54:41.488Z,17.33
2022-10-01T08:57:19.061Z,17.37
2022-10-01T08:59:53.245Z,17.62
2022-10-01T09:02:26.576Z,17.77
2022-10-01T09:05:01.505Z,17.81
2022-10-01T09:07:56.674Z,17.86
2022-10-01T09:10:44.360Z,18.05
2022-10-01T09:13:49.946Z,18.14
2022-10-01T09:16:26.687Z,18.24
2022-10-01T09:19:14.059Z,18.52
2022-10-01T09:21:57.230Z,18.76
2022-10-01T09:24:42.220Z,19.24
2022-10-01T09:27:19.184Z,19.55
2022-10-01T09:29:53.670Z,19.75
2022-10-01T09:32:28.036Z,19.75
2022-10-01T09:35:04.507Z,19.71
2022-10-01T09:37:45.791Z,19.61
2022-10-01T09:40:22.708Z,19.58
2022-10-01T09:42:52.953Z,19.58
2022-10-01T09:45:25.941Z,19.29
2022-10-01T09:47:59.894Z,19.25
2022-10-01T09:50:40.020Z,19.15
2022-10-01T09:53:18.947Z,18.96
2022-10-01T09:55:55.654Z,18.95
2022-10-01T09:58:27.672Z,18.86
2022-10-01T10:00:59.993Z,18.65
2022-10-01T10:03:32.363Z,18.64
2022-10-01T10:06:02.355Z,18.69
2022-10-01T10:08:34.957Z,18.58
2022-10-01T10:11:06.657Z,19.19
2022-10-01T10:13:39.322Z,19.55
2022-10-01T10:16:20.605Z,20.03
2022-10-01T10:18:52.659Z,20.59
2022-10-01T10:21:25.971Z,20.96
2022-10-01T10:23:57.478Z,21.08
2022-10-01T10:26:32.694Z,21.05
2022-10-01T10:29:04.383Z,21.25
2022-10-01T10:31:43.070Z,21.35
2022-10-01T10:34:17.973Z,21.29
2022-10-01T10:36:48.051Z,21.09
2022-10-01T10:39:24.574Z,20.72
2022-10-01T10:41:56.181Z,20.67
2022-10-01T10:44:30.338Z,20.72
2022-10-01T10:47:04.330Z,20.24
2022-10-01T10:49:36.828Z,20.04
2022-10-01T10:52:23.816Z,20.08
2022-10-01T10:54:53.944Z,19.88
2022-10-01T10:57:28.976Z,19.91
2022-10-01T11:00:00.727Z,20.07
2022-10-01T11:02:34.005Z,19.88
2022-10-01T11:05:16.669Z,19.62
2022-10-01T11:07:48.295Z,19.28
2022-10-01T11:10:35.069Z,18.91
2022-10-01T11:13:34.882Z,18.56
2022-10-01T11:16:44.592Z,18.28
2022-10-01T11:19:43.444Z,18.03
2022-10-01T11:22:34.090Z,18.09
2022-10-01T11:25:25.821Z,18.65
2022-10-01T11:28:08.480Z,19.25
2022-10-01T11:30:48.648Z,20.07
2022-10-01T11:33:30.529Z,20.85
2022-10-01T11:36:06.449Z,21.70
2022-10-01T11:39:02.830Z,21.82
2022-10-01T11:41:38.347Z,22.08
2022-10-01T11:44:15.802Z,22.17
2022-10-01T11:46:58.619Z,22.16
2022-10-01T11:49:51.779Z,22.48
2022-10-01T11:52:34.605Z,22.97
2022-10-01T11:55:35.062Z,23.44
2022-10-01T11:58:32.092Z,23.51
2022-10-01T12:01:10.605Z,23.86
2022-10-01T12:03:56.256Z,24.13
2022-10-01T12:06:34.204Z,24.15
2022-10-01T12:09:15.337Z,23.97
2022-10-01T12:11:52.852Z,22.65
2022-10-01T12:14:31.481Z,22.49
2022-10-01T12:17:12.312Z,23.04
2022-10-01T12:19:47.925Z,23.25
2022-10-01T12:22:25.765Z,23.56
2022-10-01T12:24:56.439Z,23.44
2022-10-01T12:27:51.096Z,23.83
2022-10-01T12:30:23.215Z,23.37
2022-10-01T12:33:10.010Z,23.37
2022-10-01T12:35:58.631Z,22.38
2022-10-01T12:38:55.588Z,21.94
2022-10-01T12:41:42.198Z,21.36
2022-10-01T12:44:41.713Z,21.17
2022-10-01T12:47:26.256Z,20.52
2022-10-01T12:50:05.792Z,20.26
2022-10-01T12:52:47.270Z,19.95
2022-10-01T12:55:39.415Z,19.80
2022-10-01T12:58:23.010Z,19.79
2022-10-01T13:01:00.171Z,19.95
2022-10-01T13:04:11.188Z,19.95
2022-10-01T13:06:56.089Z,20.38
2022-10-01T13:09:36.309Z,21.41
2022-10-01T13:12:25.932Z,22.21
2022-10-01T13:14:58.285Z,22.94
2022-10-01T13:17:35.552Z,23.07
2022-10-01T13:20:15.708Z,23.07
2022-10-01T13:22:55.659Z,23.86
2022-10-01T13:25:33.841Z,24.21
2022-10-01T13:28:12.113Z,23.63
2022-10-01T13:30:59.197Z,23.17
2022-10-01T13:33:31.726Z,22.64
2022-10-01T13:36:02.455Z,22.59
2022-10-01T13:38:43.956Z,22.95
2022-10-01T13:41:22.337Z,23.26
2022-10-01T13:43:58.301Z,23.91
2022-10-01T13:46:33.672Z,24.18
2022-10-01T13:49:08.486Z,24.15
2022-10-01T13:51:39.235Z,24.05
2022-10-01T13:54:18.703Z,24.22
2022-10-01T13:56:48.031Z,23.88
2022-10-01T13:59:34.814Z,24.16
2022-10-01T14:02:29.563Z,24.08
2022-10-01T14:05:16.395Z,24.24
2022-10-01T14:07:50.423Z,23.72
2022-10-01T14:10:20.938Z,23.45
2022-10-01T14:13:08.362Z,23.37
2022-10-01T14:16:03.505Z,23.16
2022-10-01T14:18:39.708Z,23.16
2022-10-01T14:21:28.722Z,23.41
2022-10-01T14:24:07.771Z,23.53
2022-10-01T14:26:47.530Z,23.44
2022-10-01T14:29:35.832Z,23.61
2022-10-01T14:32:23.307Z,24.06
2022-10-01T14:35:12.629Z,23.84
2022-10-01T14:37:42.394Z,24.36
2022-10-01T14:40:20.066Z,24.37
2022-10-01T14:42:59.993Z,24.22
2022-10-01T14:45:30.276Z,24.19
2022-10-01T14:48:04.347Z,24.28
2022-10-01T14:50:39.253Z,24.07
2022-10-01T14:53:14.600Z,24.05
2022-10-01T14:55:43.938Z,23.97
2022-10-01T14:58:25.882Z,24.08
2022-10-01T15:00:57.685Z,24.07
2022-10-01T15:03:26.957Z,24.01
2022-10-01T15:06:12.583Z,23.66
2022-10-01T15:08:47.765Z,23.20
2022-10-01T15:11:23.238Z,22.89
2022-10-01T15:13:55.637Z,22.92
2022-10-01T15:16:29.409Z,22.93
2022-10-01T15:19:02.675Z,23.07
2022-10-01T15:21:39.656Z,23.15
2022-10-01T15:24:20.760Z,22.92
2022-10-01T15:26:52.103Z,22.72
2022-10-01T15:29:21.603Z,22.58
2022-10-01T15:31:53.344Z,22.43
2022-10-01T15:34:26.486Z,22.23
2022-10-01T15:36:57.983Z,22.15
2022-10-01T15:39:33.810Z,21.58
2022-10-01T15:42:08.817Z,21.12
2022-10-01T15:44:46.350Z,20.67
2022-10-01T15:47:34.006Z,20.62
2022-10-01T15:50:21.132Z,20.60
2022-10-01T15:53:02.227Z,20.30
2022-10-01T15:55:43.924Z,20.19
2022-10-01T15:58:20.959Z,20.12
2022-10-01T16:01:03.687Z,20.04
2022-10-01T16:03:36.140Z,19.99
2022-10-01T16:06:08.901Z,19.94
2022-10-01T16:08:53.969Z,19.87
2022-10-01T16:11:29.447Z,19.87
2022-10-01T16:14:39.450Z,19.91
2022-10-01T16:17:32.253Z,19.74
2022-10-01T16:20:24.462Z,19.67
2022-10-01T16:23:13.687Z,19.70
2022-10-01T16:25:47.546Z,19.55
2022-10-01T16:28:28.756Z,19.62
2022-10-01T16:30:58.326Z,19.59
2022-10-01T16:33:28.622Z,19.61
2022-10-01T16:36:12.345Z,19.51
2022-10-01T16:38:41.589Z,19.37
2022-10-01T16:41:13.950Z,19.37
2022-10-01T16:43:43.494Z,19.24
2022-10-01T16:46:12.684Z,19.33
2022-10-01T16:48:41.985Z,19.41
2022-10-01T16:51:11.720Z,19.33
2022-10-01T16:53:42.833Z,19.35
2022-10-01T16:56:13.768Z,19.10
2022-10-01T16:58:43.334Z,19.21
2022-10-01T17:01:16.578Z,19.16
2022-10-01T17:03:45.843Z,19.14
2022-10-01T17:06:15.020Z,19.00
2022-10-01T17:08:44.289Z,18.95
2022-10-01T17:11:14.832Z,18.92
2022-10-01T17:13:43.969Z,18.86
2022-10-01T17:16:13.163Z,18.66
2022-10-01T17:18:43.797Z,18.66
2022-10-01T17:21:13.183Z,18.76
2022-10-01T17:23:42.565Z,18.60
2022-10-01T17:26:11.759Z,18.51
2022-10-01T17:28:42.384Z,18.36
2022-10-01T17:31:17.590Z,18.37
2022-10-01T17:33:47.231Z,18.19
2022-10-01T17:36:16.472Z,18.16
2022-10-01T17:38:45.858Z,18.07
2022-10-01T17:41:15.056Z,18.23
2022-10-01T17:43:45.605Z,18.12
2022-10-01T17:46:14.947Z,18.05
2022-10-01T17:48:44.086Z,18.08
2022-10-01T17:51:15.844Z,18.05
2022-10-01T17:53:45.382Z,17.88
2022-10-01T17:56:17.712Z,17.82
2022-10-01T17:58:48.511Z,17.70
2022-10-01T18:01:21.999Z,17.71
2022-10-01T18:03:56.119Z,17.65
2022-10-01T18:06:26.449Z,17.52
2022-10-01T18:08:56.657Z,17.62
2022-10-01T18:11:27.593Z,17.44
2022-10-01T18:13:59.782Z,17.51
2022-10-01T18:16:29.408Z,17.47
2022-10-01T18:21:51.169Z,17.32
2022-10-01T18:24:20.437Z,17.30
2022-10-01T18:26:49.837Z,17.27
2022-10-01T18:29:23.236Z,17.26
2022-10-01T18:32:02.128Z,17.16
2022-10-01T18:34:38.263Z,17.07
2022-10-01T18:37:17.234Z,17.18
2022-10-01T18:39:51.179Z,17.04
2022-10-01T18:42:28.492Z,16.94
2022-10-01T18:45:03.018Z,17.01
2022-10-01T18:47:43.637Z,17.01
2022-10-01T18:50:33.072Z,16.94
2022-10-01T18:53:39.166Z,16.94
2022-10-01T18:56:31.193Z,16.95
2022-10-01T18:59:58.477Z,17.05
2022-10-01T19:02:53.528Z,17.08
2022-10-01T19:06:11.906Z,16.81
2022-10-01T19:09:03.223Z,16.80
2022-10-01T19:11:46.388Z,16.58
2022-10-01T19:14:47.259Z,16.55
2022-10-01T19:17:32.190Z,16.48
2022-10-01T19:20:17.157Z,16.42
2022-10-01T19:23:04.367Z,16.30
2022-10-01T19:25:41.908Z,16.22
2022-10-01T19:28:30.462Z,16.13
2022-10-01T19:31:10.808Z,16.13
2022-10-01T19:33:48.131Z,15.93
2022-10-01T19:36:26.280Z,15.97
2022-10-01T19:39:02.175Z,15.87
2022-10-01T19:41:40.501Z,15.85
2022-10-01T19:44:16.554Z,15.74
2022-10-01T19:46:47.736Z,15.77
2022-10-01T19:49:22.462Z,15.58
2022-10-01T19:51:58.837Z,15.71
2022-10-01T19:54:33.391Z,15.66
2022-10-01T19:57:07.723Z,15.65
2022-10-01T19:59:36.976Z,15.58
2022-10-01T20:02:16.083Z,15.61
2022-10-01T20:04:52.407Z,15.63
2022-10-01T20:07:30.013Z,15.73
2022-10-01T20:10:14.854Z,15.57
2022-10-01T20:12:54.535Z,15.52
2022-10-01T20:15:35.755Z,15.57
2022-10-01T20:18:17.609Z,15.35
2022-10-01T20:21:12.605Z,15.50
2022-10-01T20:23:51.825Z,15.51
2022-10-01T20:26:32.268Z,15.46
2022-10-01T20:29:22.153Z,15.30
2022-10-01T20:32:03.349Z,15.39
2022-10-01T20:34:46.169Z,15.49
2022-10-01T20:37:37.129Z,15.42
2022-10-01T20:40:19.018Z,15.39
2022-10-01T20:42:51.918Z,15.53
2022-10-01T20:45:25.666Z,15.49
2022-10-01T20:48:00.172Z,15.32
2022-10-01T20:50:35.540Z,15.39
2022-10-01T20:53:32.711Z,15.38
2022-10-01T20:56:10.255Z,15.34
2022-10-01T20:58:47.355Z,15.28
2022-10-01T21:01:21.676Z,15.37
2022-10-01T21:03:58.002Z,15.43
2022-10-01T21:06:35.513Z,15.42
2022-10-01T21:09:15.341Z,15.31
2022-10-01T21:11:53.539Z,15.17
2022-10-01T21:14:27.596Z,15.39
2022-10-01T21:17:31.027Z,15.33
2022-10-01T21:20:29.797Z,15.27
2022-10-01T21:23:14.483Z,15.27
2022-10-01T21:25:58.194Z,15.33
2022-10-01T21:28:48.520Z,15.30
2022-10-01T21:31:35.926Z,15.23
2022-10-01T21:34:14.076Z,15.27
2022-10-01T21:37:00.034Z,15.23
2022-10-01T21:39:34.844Z,15.21
2022-10-01T21:42:16.647Z,15.29
2022-10-01T21:45:16.580Z,15.25
2022-10-01T21:48:04.195Z,15.24
2022-10-01T21:50:49.823Z,15.31
2022-10-01T21:54:00.567Z,15.34
2022-10-01T21:57:02.315Z,15.34
2022-10-01T22:00:03.090Z,15.35
2022-10-01T22:02:50.107Z,15.33
2022-10-01T22:05:29.600Z,15.21
2022-10-01T22:08:09.123Z,15.28
2022-10-01T22:10:43.515Z,15.23
2022-10-01T22:13:20.082Z,15.24
2022-10-01T22:15:54.473Z,15.27
2022-10-01T22:18:35.529Z,15.14
2022-10-01T22:21:11.927Z,15.21
2022-10-01T22:23:48.217Z,15.13
2022-10-01T22:26:22.354Z,15.17
2022-10-01T22:28:55.922Z,15.20
2022-10-01T22:31:31.690Z,15.25
2022-10-01T22:34:07.663Z,15.26
2022-10-01T22:36:45.596Z,15.18
2022-10-01T22:39:22.464Z,15.32
2022-10-01T22:41:59.134Z,15.28
2022-10-01T22:44:29.770Z,15.30
2022-10-01T22:47:25.917Z,15.25
2022-10-01T22:50:11.869Z,15.27
2022-10-01T22:52:52.366Z,15.27
2022-10-01T22:55:34.700Z,15.26
2022-10-01T22:58:47.422Z,15.32
2022-10-01T23:01:28.423Z,15.23
2022-10-01T23:04:18.625Z,15.11
2022-10-01T23:07:00.383Z,15.13
2022-10-01T23:09:37.709Z,15.21
2022-10-01T23:12:19.022Z,15.13
2022-10-01T23:15:05.292Z,15.19
2022-10-01T23:17:40.916Z,15.16
2022-10-01T23:20:25.139Z,15.12
2022-10-01T23:23:25.862Z,15.18
2022-10-01T23:26:12.145Z,15.15
2022-10-01T23:29:01.873Z,15.21
2022-10-01T23:31:40.822Z,15.19
2022-10-01T23:34:26.689Z,15.26
2022-10-01T23:37:18.916Z,15.18
2022-10-01T23:39:56.492Z,15.22
2022-10-01T23:42:36.832Z,15.11
2022-10-01T23:45:24.205Z,15.16
2022-10-01T23:48:03.043Z,15.19
2022-10-01T23:50:38.929Z,15.18
2022-10-01T23:53:16.800Z,15.27
2022-10-01T23:56:11.716Z,15.13
2022-10-01T23:58:51.733Z,15.21
